sensor_id;sensor_type;location;lat;lon;timestamp;P1;durP1;ratioP1;P2;durP2;ratioP2
14358;SDS011;7263;49.418;11.064;2023-05-10T00:00:43;5.33;;;4.60;;
14358;SDS011;7263;49.418;11.064;2023-05-10T00:03:13;5.43;;;4.53;;
14358;SDS011;7263;49.418;11.064;2023-05-10T00:05:43;5.43;;;5.03;;
14358;SDS011;7263;49.418;11.064;2023-05-10T00:08:10;5.13;;;4.63;;
14358;SDS011;7263;49.418;11.064;2023-05-10T00:10:43;5.00;;;4.50;;
14358;SDS011;7263;49.418;11.064;2023-05-10T00:13:22;7.23;;;4.93;;
14358;SDS011;7263;49.418;11.064;2023-05-10T00:15:54;6.13;;;5.63;;
14358;SDS011;7263;49.418;11.064;2023-05-10T00:18:26;5.93;;;5.43;;
14358;SDS011;7263;49.418;11.064;2023-05-10T00:20:53;5.80;;;5.30;;
14358;SDS011;7263;49.418;11.064;2023-05-10T00:23:20;5.30;;;4.80;;
14358;SDS011;7263;49.418;11.064;2023-05-10T00:25:53;8.97;;;5.93;;
14358;SDS011;7263;49.418;11.064;2023-05-10T00:28:20;9.37;;;8.37;;
14358;SDS011;7263;49.418;11.064;2023-05-10T00:30:48;7.33;;;6.63;;
14358;SDS011;7263;49.418;11.064;2023-05-10T00:33:20;7.70;;;7.00;;
14358;SDS011;7263;49.418;11.064;2023-05-10T00:35:47;7.83;;;6.97;;
14358;SDS011;7263;49.418;11.064;2023-05-10T00:38:20;7.83;;;7.20;;
14358;SDS011;7263;49.418;11.064;2023-05-10T00:40:47;8.07;;;7.17;;
14358;SDS011;7263;49.418;11.064;2023-05-10T00:43:14;8.97;;;7.40;;
14358;SDS011;7263;49.418;11.064;2023-05-10T00:45:41;9.40;;;8.50;;
14358;SDS011;7263;49.418;11.064;2023-05-10T00:48:09;9.20;;;8.07;;
14358;SDS011;7263;49.418;11.064;2023-05-10T00:50:36;9.27;;;8.13;;
14358;SDS011;7263;49.418;11.064;2023-05-10T00:53:14;10.53;;;8.00;;
14358;SDS011;7263;49.418;11.064;2023-05-10T00:55:43;9.30;;;8.47;;
14358;SDS011;7263;49.418;11.064;2023-05-10T00:58:16;8.47;;;7.63;;
14358;SDS011;7263;49.418;11.064;2023-05-10T01:00:48;9.37;;;8.47;;
14358;SDS011;7263;49.418;11.064;2023-05-10T01:03:19;10.50;;;8.70;;
14358;SDS011;7263;49.418;11.064;2023-05-10T01:05:48;9.67;;;8.77;;
14358;SDS011;7263;49.418;11.064;2023-05-10T01:08:18;9.23;;;8.40;;
14358;SDS011;7263;49.418;11.064;2023-05-10T01:10:49;9.50;;;8.50;;
14358;SDS011;7263;49.418;11.064;2023-05-10T01:13:23;9.97;;;8.97;;
14358;SDS011;7263;49.418;11.064;2023-05-10T01:15:57;9.60;;;8.70;;
14358;SDS011;7263;49.418;11.064;2023-05-10T01:18:30;11.90;;;9.50;;
14358;SDS011;7263;49.418;11.064;2023-05-10T01:21:07;10.40;;;9.43;;
14358;SDS011;7263;49.418;11.064;2023-05-10T01:23:50;10.83;;;9.83;;
14358;SDS011;7263;49.418;11.064;2023-05-10T01:26:55;10.83;;;9.73;;
14358;SDS011;7263;49.418;11.064;2023-05-10T01:32:48;9.53;;;8.63;;
14358;SDS011;7263;49.418;11.064;2023-05-10T01:35:26;10.27;;;9.33;;
14358;SDS011;7263;49.418;11.064;2023-05-10T01:37:59;9.87;;;8.87;;
14358;SDS011;7263;49.418;11.064;2023-05-10T01:40:35;10.00;;;9.00;;
14358;SDS011;7263;49.418;11.064;2023-05-10T01:43:08;10.23;;;9.10;;
14358;SDS011;7263;49.418;11.064;2023-05-10T01:45:59;10.07;;;9.17;;
14358;SDS011;7263;49.418;11.064;2023-05-10T01:48:36;10.50;;;9.50;;
14358;SDS011;7263;49.418;11.064;2023-05-10T01:51:08;11.73;;;9.00;;
14358;SDS011;7263;49.418;11.064;2023-05-10T01:53:54;10.73;;;9.73;;
14358;SDS011;7263;49.418;11.064;2023-05-10T01:56:26;11.33;;;10.17;;
14358;SDS011;7263;49.418;11.064;2023-05-10T01:59:00;11.10;;;10.10;;
14358;SDS011;7263;49.418;11.064;2023-05-10T02:01:34;11.83;;;9.53;;
14358;SDS011;7263;49.418;11.064;2023-05-10T02:04:05;10.10;;;9.20;;
14358;SDS011;7263;49.418;11.064;2023-05-10T02:06:43;9.57;;;8.57;;
14358;SDS011;7263;49.418;11.064;2023-05-10T02:09:11;10.00;;;9.03;;
14358;SDS011;7263;49.418;11.064;2023-05-10T02:11:39;9.73;;;8.83;;
14358;SDS011;7263;49.418;11.064;2023-05-10T02:14:15;9.83;;;8.83;;
14358;SDS011;7263;49.418;11.064;2023-05-10T02:16:42;9.97;;;8.03;;
14358;SDS011;7263;49.418;11.064;2023-05-10T02:19:11;8.60;;;7.80;;
14358;SDS011;7263;49.418;11.064;2023-05-10T02:21:42;8.80;;;7.90;;
14358;SDS011;7263;49.418;11.064;2023-05-10T02:24:10;9.03;;;8.13;;
14358;SDS011;7263;49.418;11.064;2023-05-10T02:26:37;9.77;;;8.47;;
14358;SDS011;7263;49.418;11.064;2023-05-10T02:29:18;8.50;;;7.60;;
14358;SDS011;7263;49.418;11.064;2023-05-10T02:31:45;8.40;;;7.60;;
14358;SDS011;7263;49.418;11.064;2023-05-10T02:34:14;7.60;;;6.90;;
14358;SDS011;7263;49.418;11.064;2023-05-10T02:36:41;7.77;;;7.10;;
14358;SDS011;7263;49.418;11.064;2023-05-10T02:39:15;14.23;;;12.73;;
14358;SDS011;7263;49.418;11.064;2023-05-10T02:41:44;13.20;;;11.97;;
14358;SDS011;7263;49.418;11.064;2023-05-10T02:44:12;13.17;;;11.77;;
14358;SDS011;7263;49.418;11.064;2023-05-10T02:46:41;13.03;;;11.77;;
14358;SDS011;7263;49.418;11.064;2023-05-10T02:49:08;6.33;;;5.77;;
14358;SDS011;7263;49.418;11.064;2023-05-10T02:51:40;7.07;;;6.00;;
14358;SDS011;7263;49.418;11.064;2023-05-10T02:54:13;5.53;;;5.03;;
14358;SDS011;7263;49.418;11.064;2023-05-10T02:56:47;5.53;;;5.03;;
14358;SDS011;7263;49.418;11.064;2023-05-10T02:59:23;5.57;;;5.07;;
14358;SDS011;7263;49.418;11.064;2023-05-10T03:01:53;6.00;;;5.03;;
14358;SDS011;7263;49.418;11.064;2023-05-10T03:04:25;4.20;;;3.80;;
14358;SDS011;7263;49.418;11.064;2023-05-10T03:06:56;3.40;;;3.10;;
14358;SDS011;7263;49.418;11.064;2023-05-10T03:09:23;10.37;;;8.70;;
14358;SDS011;7263;49.418;11.064;2023-05-10T03:11:54;5.47;;;4.97;;
14358;SDS011;7263;49.418;11.064;2023-05-10T03:14:43;4.90;;;4.40;;
14358;SDS011;7263;49.418;11.064;2023-05-10T03:17:29;3.27;;;2.97;;
14358;SDS011;7263;49.418;11.064;2023-05-10T03:20:02;4.73;;;3.77;;
14358;SDS011;7263;49.418;11.064;2023-05-10T03:22:35;4.10;;;2.77;;
14358;SDS011;7263;49.418;11.064;2023-05-10T03:25:05;6.43;;;4.10;;
14358;SDS011;7263;49.418;11.064;2023-05-10T03:27:41;2.60;;;2.40;;
14358;SDS011;7263;49.418;11.064;2023-05-10T03:30:10;2.37;;;2.00;;
14358;SDS011;7263;49.418;11.064;2023-05-10T03:32:40;2.70;;;2.50;;
14358;SDS011;7263;49.418;11.064;2023-05-10T03:35:09;2.23;;;2.00;;
14358;SDS011;7263;49.418;11.064;2023-05-10T03:37:39;2.80;;;2.60;;
14358;SDS011;7263;49.418;11.064;2023-05-10T03:40:06;2.20;;;2.00;;
14358;SDS011;7263;49.418;11.064;2023-05-10T03:42:34;2.77;;;2.57;;
14358;SDS011;7263;49.418;11.064;2023-05-10T03:45:04;7.73;;;6.90;;
14358;SDS011;7263;49.418;11.064;2023-05-10T03:47:34;8.47;;;7.50;;
14358;SDS011;7263;49.418;11.064;2023-05-10T03:50:04;3.77;;;2.40;;
14358;SDS011;7263;49.418;11.064;2023-05-10T03:52:35;3.00;;;2.63;;
14358;SDS011;7263;49.418;11.064;2023-05-10T03:55:14;3.23;;;2.73;;
14358;SDS011;7263;49.418;11.064;2023-05-10T03:57:41;3.93;;;2.93;;
14358;SDS011;7263;49.418;11.064;2023-05-10T04:00:11;4.77;;;4.30;;
14358;SDS011;7263;49.418;11.064;2023-05-10T04:02:39;8.80;;;7.93;;
14358;SDS011;7263;49.418;11.064;2023-05-10T04:05:06;3.07;;;2.73;;
14358;SDS011;7263;49.418;11.064;2023-05-10T04:07:36;2.10;;;1.60;;
14358;SDS011;7263;49.418;11.064;2023-05-10T04:10:07;1.77;;;1.60;;
14358;SDS011;7263;49.418;11.064;2023-05-10T04:12:39;1.50;;;1.40;;
14358;SDS011;7263;49.418;11.064;2023-05-10T04:15:10;2.47;;;1.20;;
14358;SDS011;7263;49.418;11.064;2023-05-10T04:17:37;1.90;;;1.40;;
14358;SDS011;7263;49.418;11.064;2023-05-10T04:20:07;1.63;;;1.53;;
14358;SDS011;7263;49.418;11.064;2023-05-10T04:22:34;1.37;;;1.23;;
14358;SDS011;7263;49.418;11.064;2023-05-10T04:25:04;1.53;;;1.20;;
14358;SDS011;7263;49.418;11.064;2023-05-10T04:27:36;1.60;;;1.50;;
14358;SDS011;7263;49.418;11.064;2023-05-10T04:30:07;1.20;;;1.10;;
14358;SDS011;7263;49.418;11.064;2023-05-10T04:32:37;1.57;;;1.30;;
14358;SDS011;7263;49.418;11.064;2023-05-10T04:35:04;1.23;;;0.97;;
14358;SDS011;7263;49.418;11.064;2023-05-10T04:37:34;1.23;;;1.10;;
14358;SDS011;7263;49.418;11.064;2023-05-10T04:40:01;1.47;;;1.07;;
14358;SDS011;7263;49.418;11.064;2023-05-10T04:42:30;1.90;;;1.10;;
14358;SDS011;7263;49.418;11.064;2023-05-10T04:45:02;2.47;;;1.00;;
14358;SDS011;7263;49.418;11.064;2023-05-10T04:47:32;1.23;;;1.13;;
14358;SDS011;7263;49.418;11.064;2023-05-10T04:50:02;1.47;;;0.93;;
14358;SDS011;7263;49.418;11.064;2023-05-10T04:52:29;1.23;;;1.00;;
14358;SDS011;7263;49.418;11.064;2023-05-10T04:54:56;1.10;;;0.90;;
14358;SDS011;7263;49.418;11.064;2023-05-10T04:57:22;1.73;;;0.90;;
14358;SDS011;7263;49.418;11.064;2023-05-10T04:59:49;1.10;;;1.00;;
14358;SDS011;7263;49.418;11.064;2023-05-10T05:02:22;1.10;;;1.00;;
14358;SDS011;7263;49.418;11.064;2023-05-10T05:07:33;0.97;;;0.97;;
14358;SDS011;7263;49.418;11.064;2023-05-10T05:09:59;2.03;;;1.10;;
14358;SDS011;7263;49.418;11.064;2023-05-10T05:12:32;1.90;;;1.10;;
14358;SDS011;7263;49.418;11.064;2023-05-10T05:15:05;0.90;;;0.83;;
14358;SDS011;7263;49.418;11.064;2023-05-10T05:17:34;1.13;;;0.90;;
14358;SDS011;7263;49.418;11.064;2023-05-10T05:20:01;3.33;;;1.17;;
14358;SDS011;7263;49.418;11.064;2023-05-10T05:22:29;1.13;;;0.90;;
14358;SDS011;7263;49.418;11.064;2023-05-10T05:24:56;0.90;;;0.90;;
14358;SDS011;7263;49.418;11.064;2023-05-10T05:27:24;0.80;;;0.80;;
14358;SDS011;7263;49.418;11.064;2023-05-10T05:29:52;0.70;;;0.70;;
14358;SDS011;7263;49.418;11.064;2023-05-10T05:32:21;1.00;;;0.90;;
14358;SDS011;7263;49.418;11.064;2023-05-10T05:34:49;0.97;;;0.97;;
14358;SDS011;7263;49.418;11.064;2023-05-10T05:37:16;1.33;;;0.80;;
14358;SDS011;7263;49.418;11.064;2023-05-10T05:39:45;1.47;;;0.90;;
14358;SDS011;7263;49.418;11.064;2023-05-10T05:42:13;0.70;;;0.70;;
14358;SDS011;7263;49.418;11.064;2023-05-10T05:44:41;0.90;;;0.90;;
14358;SDS011;7263;49.418;11.064;2023-05-10T05:47:08;0.80;;;0.80;;
14358;SDS011;7263;49.418;11.064;2023-05-10T05:49:35;1.10;;;1.00;;
14358;SDS011;7263;49.418;11.064;2023-05-10T05:52:02;1.00;;;0.80;;
14358;SDS011;7263;49.418;11.064;2023-05-10T05:54:31;4.97;;;1.20;;
14358;SDS011;7263;49.418;11.064;2023-05-10T05:57:02;0.80;;;0.80;;
14358;SDS011;7263;49.418;11.064;2023-05-10T05:59:34;1.30;;;1.00;;
14358;SDS011;7263;49.418;11.064;2023-05-10T06:02:01;1.10;;;1.00;;
14358;SDS011;7263;49.418;11.064;2023-05-10T06:04:28;2.27;;;1.13;;
14358;SDS011;7263;49.418;11.064;2023-05-10T06:06:55;1.07;;;1.00;;
14358;SDS011;7263;49.418;11.064;2023-05-10T06:09:22;1.10;;;1.00;;
14358;SDS011;7263;49.418;11.064;2023-05-10T06:11:54;2.40;;;1.00;;
14358;SDS011;7263;49.418;11.064;2023-05-10T06:14:25;1.17;;;1.03;;
14358;SDS011;7263;49.418;11.064;2023-05-10T06:16:55;1.23;;;1.13;;
14358;SDS011;7263;49.418;11.064;2023-05-10T06:19:25;1.20;;;1.10;;
14358;SDS011;7263;49.418;11.064;2023-05-10T06:21:52;1.30;;;1.20;;
14358;SDS011;7263;49.418;11.064;2023-05-10T06:24:19;1.73;;;1.20;;
14358;SDS011;7263;49.418;11.064;2023-05-10T06:26:49;0.90;;;0.90;;
14358;SDS011;7263;49.418;11.064;2023-05-10T06:29:15;2.00;;;1.00;;
14358;SDS011;7263;49.418;11.064;2023-05-10T06:31:47;1.03;;;0.93;;
14358;SDS011;7263;49.418;11.064;2023-05-10T06:34:14;1.27;;;1.00;;
14358;SDS011;7263;49.418;11.064;2023-05-10T06:36:43;0.90;;;0.90;;
14358;SDS011;7263;49.418;11.064;2023-05-10T06:39:10;1.00;;;1.00;;
14358;SDS011;7263;49.418;11.064;2023-05-10T06:41:40;1.30;;;1.20;;
14358;SDS011;7263;49.418;11.064;2023-05-10T06:44:07;0.93;;;0.93;;
14358;SDS011;7263;49.418;11.064;2023-05-10T06:46:36;1.50;;;1.20;;
14358;SDS011;7263;49.418;11.064;2023-05-10T06:49:04;2.30;;;1.00;;
14358;SDS011;7263;49.418;11.064;2023-05-10T06:51:33;1.70;;;1.10;;
14358;SDS011;7263;49.418;11.064;2023-05-10T06:54:00;1.52;;;0.90;;
14358;SDS011;7263;49.418;11.064;2023-05-10T06:56:34;1.30;;;1.20;;
14358;SDS011;7263;49.418;11.064;2023-05-10T06:59:01;1.30;;;1.00;;
14358;SDS011;7263;49.418;11.064;2023-05-10T07:01:28;2.00;;;1.10;;
14358;SDS011;7263;49.418;11.064;2023-05-10T07:03:55;0.85;;;0.85;;
14358;SDS011;7263;49.418;11.064;2023-05-10T07:06:25;1.73;;;1.00;;
14358;SDS011;7263;49.418;11.064;2023-05-10T07:08:52;0.90;;;0.90;;
14358;SDS011;7263;49.418;11.064;2023-05-10T07:11:22;1.20;;;1.10;;
14358;SDS011;7263;49.418;11.064;2023-05-10T07:13:51;1.48;;;0.90;;
14358;SDS011;7263;49.418;11.064;2023-05-10T07:16:21;1.15;;;1.05;;
14358;SDS011;7263;49.418;11.064;2023-05-10T07:18:47;0.88;;;0.88;;
14358;SDS011;7263;49.418;11.064;2023-05-10T07:21:18;1.33;;;1.00;;
14358;SDS011;7263;49.418;11.064;2023-05-10T07:23:46;1.30;;;0.95;;
14358;SDS011;7263;49.418;11.064;2023-05-10T07:26:13;0.95;;;0.80;;
14358;SDS011;7263;49.418;11.064;2023-05-10T07:28:41;3.55;;;1.00;;
14358;SDS011;7263;49.418;11.064;2023-05-10T07:31:08;0.88;;;0.88;;
14358;SDS011;7263;49.418;11.064;2023-05-10T07:33:40;2.00;;;1.35;;
14358;SDS011;7263;49.418;11.064;2023-05-10T07:36:07;1.50;;;0.90;;
14358;SDS011;7263;49.418;11.064;2023-05-10T07:38:37;1.97;;;1.07;;
14358;SDS011;7263;49.418;11.064;2023-05-10T07:41:06;0.80;;;0.80;;
14358;SDS011;7263;49.418;11.064;2023-05-10T07:43:32;1.10;;;0.93;;
14358;SDS011;7263;49.418;11.064;2023-05-10T07:45:59;1.85;;;1.20;;
14358;SDS011;7263;49.418;11.064;2023-05-10T07:48:26;1.77;;;0.90;;
14358;SDS011;7263;49.418;11.064;2023-05-10T07:50:53;1.33;;;0.90;;
14358;SDS011;7263;49.418;11.064;2023-05-10T07:53:26;1.10;;;1.00;;
14358;SDS011;7263;49.418;11.064;2023-05-10T07:55:57;1.00;;;1.00;;
14358;SDS011;7263;49.418;11.064;2023-05-10T07:58:31;1.23;;;0.80;;
14358;SDS011;7263;49.418;11.064;2023-05-10T08:00:58;0.95;;;0.95;;
14358;SDS011;7263;49.418;11.064;2023-05-10T08:03:25;2.13;;;1.50;;
14358;SDS011;7263;49.418;11.064;2023-05-10T08:05:51;1.05;;;1.05;;
14358;SDS011;7263;49.418;11.064;2023-05-10T08:08:18;3.63;;;1.63;;
14358;SDS011;7263;49.418;11.064;2023-05-10T08:10:46;1.45;;;1.35;;
14358;SDS011;7263;49.418;11.064;2023-05-10T08:13:18;1.40;;;1.30;;
14358;SDS011;7263;49.418;11.064;2023-05-10T08:15:46;2.30;;;1.17;;
14358;SDS011;7263;49.418;11.064;2023-05-10T08:18:19;1.30;;;1.10;;
14358;SDS011;7263;49.418;11.064;2023-05-10T08:20:52;1.20;;;1.10;;
14358;SDS011;7263;49.418;11.064;2023-05-10T08:23:19;1.70;;;1.00;;
14358;SDS011;7263;49.418;11.064;2023-05-10T08:25:45;2.20;;;1.05;;
14358;SDS011;7263;49.418;11.064;2023-05-10T08:28:15;1.17;;;1.08;;
14358;SDS011;7263;49.418;11.064;2023-05-10T08:30:44;1.30;;;1.20;;
14358;SDS011;7263;49.418;11.064;2023-05-10T08:33:22;2.35;;;1.00;;
14358;SDS011;7263;49.418;11.064;2023-05-10T08:35:49;1.55;;;1.30;;
14358;SDS011;7263;49.418;11.064;2023-05-10T08:38:15;1.85;;;1.27;;
14358;SDS011;7263;49.418;11.064;2023-05-10T08:40:46;1.55;;;1.20;;
14358;SDS011;7263;49.418;11.064;2023-05-10T08:43:18;0.93;;;0.93;;
14358;SDS011;7263;49.418;11.064;2023-05-10T08:45:47;4.65;;;1.08;;
14358;SDS011;7263;49.418;11.064;2023-05-10T08:48:16;2.05;;;0.80;;
14358;SDS011;7263;49.418;11.064;2023-05-10T08:50:46;0.80;;;0.70;;
14358;SDS011;7263;49.418;11.064;2023-05-10T08:53:24;2.08;;;1.00;;
14358;SDS011;7263;49.418;11.064;2023-05-10T08:55:52;1.80;;;1.10;;
14358;SDS011;7263;49.418;11.064;2023-05-10T08:58:22;1.02;;;1.02;;
14358;SDS011;7263;49.418;11.064;2023-05-10T09:00:49;4.72;;;1.38;;
14358;SDS011;7263;49.418;11.064;2023-05-10T09:03:21;1.90;;;1.30;;
14358;SDS011;7263;49.418;11.064;2023-05-10T09:05:49;2.85;;;1.45;;
14358;SDS011;7263;49.418;11.064;2023-05-10T09:08:16;1.95;;;1.48;;
14358;SDS011;7263;49.418;11.064;2023-05-10T09:10:45;1.67;;;1.50;;
14358;SDS011;7263;49.418;11.064;2023-05-10T09:13:14;2.40;;;1.87;;
14358;SDS011;7263;49.418;11.064;2023-05-10T09:15:59;2.33;;;1.60;;
14358;SDS011;7263;49.418;11.064;2023-05-10T09:18:30;2.80;;;2.07;;
14358;SDS011;7263;49.418;11.064;2023-05-10T09:20:58;2.63;;;2.13;;
14358;SDS011;7263;49.418;11.064;2023-05-10T09:23:25;2.40;;;2.20;;
14358;SDS011;7263;49.418;11.064;2023-05-10T09:26:03;6.37;;;2.37;;
14358;SDS011;7263;49.418;11.064;2023-05-10T09:28:50;3.50;;;2.20;;
14358;SDS011;7263;49.418;11.064;2023-05-10T09:31:20;2.70;;;2.40;;
14358;SDS011;7263;49.418;11.064;2023-05-10T09:33:47;2.57;;;2.20;;
14358;SDS011;7263;49.418;11.064;2023-05-10T09:36:16;2.63;;;2.00;;
14358;SDS011;7263;49.418;11.064;2023-05-10T09:38:50;3.03;;;1.93;;
14358;SDS011;7263;49.418;11.064;2023-05-10T09:41:18;2.00;;;1.90;;
14358;SDS011;7263;49.418;11.064;2023-05-10T09:43:55;3.13;;;2.00;;
14358;SDS011;7263;49.418;11.064;2023-05-10T09:46:24;1.88;;;1.77;;
14358;SDS011;7263;49.418;11.064;2023-05-10T09:48:51;2.47;;;1.90;;
14358;SDS011;7263;49.418;11.064;2023-05-10T09:51:20;3.25;;;1.77;;
14358;SDS011;7263;49.418;11.064;2023-05-10T09:53:47;4.93;;;1.60;;
14358;SDS011;7263;49.418;11.064;2023-05-10T09:59:07;2.05;;;1.73;;
14358;SDS011;7263;49.418;11.064;2023-05-10T10:01:38;1.50;;;1.40;;
14358;SDS011;7263;49.418;11.064;2023-05-10T10:04:05;1.73;;;1.63;;
14358;SDS011;7263;49.418;11.064;2023-05-10T10:06:40;4.45;;;1.60;;
14358;SDS011;7263;49.418;11.064;2023-05-10T10:09:07;1.48;;;1.38;;
14358;SDS011;7263;49.418;11.064;2023-05-10T10:11:38;2.25;;;1.38;;
14358;SDS011;7263;49.418;11.064;2023-05-10T10:14:06;1.60;;;1.33;;
14358;SDS011;7263;49.418;11.064;2023-05-10T10:16:33;1.60;;;1.13;;
14358;SDS011;7263;49.418;11.064;2023-05-10T10:19:01;3.00;;;1.50;;
14358;SDS011;7263;49.418;11.064;2023-05-10T10:21:31;1.40;;;1.30;;
14358;SDS011;7263;49.418;11.064;2023-05-10T10:24:02;1.60;;;1.23;;
14358;SDS011;7263;49.418;11.064;2023-05-10T10:26:33;1.63;;;1.30;;
14358;SDS011;7263;49.418;11.064;2023-05-10T10:29:10;1.30;;;1.02;;
14358;SDS011;7263;49.418;11.064;2023-05-10T10:31:47;2.65;;;1.40;;
14358;SDS011;7263;49.418;11.064;2023-05-10T10:34:22;1.75;;;1.10;;
14358;SDS011;7263;49.418;11.064;2023-05-10T10:36:52;1.77;;;1.20;;
14358;SDS011;7263;49.418;11.064;2023-05-10T10:39:25;1.55;;;1.02;;
14358;SDS011;7263;49.418;11.064;2023-05-10T10:42:01;1.58;;;1.27;;
14358;SDS011;7263;49.418;11.064;2023-05-10T10:44:35;1.30;;;1.20;;
14358;SDS011;7263;49.418;11.064;2023-05-10T10:50:04;1.90;;;1.23;;
14358;SDS011;7263;49.418;11.064;2023-05-10T10:52:36;3.80;;;1.63;;
14358;SDS011;7263;49.418;11.064;2023-05-10T10:55:06;1.60;;;1.23;;
14358;SDS011;7263;49.418;11.064;2023-05-10T10:57:44;3.83;;;1.23;;
14358;SDS011;7263;49.418;11.064;2023-05-10T11:03:03;1.45;;;0.80;;
14358;SDS011;7263;49.418;11.064;2023-05-10T11:08:25;1.05;;;0.98;;
14358;SDS011;7263;49.418;11.064;2023-05-10T11:11:04;2.72;;;0.90;;
14358;SDS011;7263;49.418;11.064;2023-05-10T11:13:38;4.93;;;1.30;;
14358;SDS011;7263;49.418;11.064;2023-05-10T11:16:16;1.27;;;1.00;;
14358;SDS011;7263;49.418;11.064;2023-05-10T11:18:57;2.28;;;1.10;;
14358;SDS011;7263;49.418;11.064;2023-05-10T11:21:28;1.35;;;1.13;;
14358;SDS011;7263;49.418;11.064;2023-05-10T11:23:59;1.20;;;1.10;;
14358;SDS011;7263;49.418;11.064;2023-05-10T11:26:33;2.67;;;1.23;;
14358;SDS011;7263;49.418;11.064;2023-05-10T11:29:03;3.97;;;1.40;;
14358;SDS011;7263;49.418;11.064;2023-05-10T11:31:30;2.58;;;1.30;;
14358;SDS011;7263;49.418;11.064;2023-05-10T11:33:58;1.25;;;1.13;;
14358;SDS011;7263;49.418;11.064;2023-05-10T11:36:27;1.58;;;1.00;;
14358;SDS011;7263;49.418;11.064;2023-05-10T11:38:59;1.10;;;1.00;;
14358;SDS011;7263;49.418;11.064;2023-05-10T11:41:27;2.15;;;1.27;;
14358;SDS011;7263;49.418;11.064;2023-05-10T11:43:56;1.52;;;1.25;;
14358;SDS011;7263;49.418;11.064;2023-05-10T11:46:30;1.67;;;1.20;;
14358;SDS011;7263;49.418;11.064;2023-05-10T11:48:57;4.53;;;1.30;;
14358;SDS011;7263;49.418;11.064;2023-05-10T11:51:29;3.70;;;1.50;;
14358;SDS011;7263;49.418;11.064;2023-05-10T11:53:58;1.40;;;1.30;;
14358;SDS011;7263;49.418;11.064;2023-05-10T11:56:27;1.65;;;1.30;;
14358;SDS011;7263;49.418;11.064;2023-05-10T12:01:40;1.30;;;1.20;;
14358;SDS011;7263;49.418;11.064;2023-05-10T12:04:07;1.83;;;1.10;;
14358;SDS011;7263;49.418;11.064;2023-05-10T12:06:36;2.03;;;1.20;;
14358;SDS011;7263;49.418;11.064;2023-05-10T12:09:06;2.10;;;1.17;;
14358;SDS011;7263;49.418;11.064;2023-05-10T12:11:36;1.35;;;1.20;;
14358;SDS011;7263;49.418;11.064;2023-05-10T12:14:04;1.63;;;0.90;;
14358;SDS011;7263;49.418;11.064;2023-05-10T12:16:33;1.13;;;0.88;;
14358;SDS011;7263;49.418;11.064;2023-05-10T12:19:00;1.20;;;1.10;;
14358;SDS011;7263;49.418;11.064;2023-05-10T12:21:27;1.52;;;1.10;;
14358;SDS011;7263;49.418;11.064;2023-05-10T12:24:12;2.00;;;1.10;;
14358;SDS011;7263;49.418;11.064;2023-05-10T12:26:43;1.42;;;1.00;;
14358;SDS011;7263;49.418;11.064;2023-05-10T12:29:13;0.88;;;0.70;;
14358;SDS011;7263;49.418;11.064;2023-05-10T12:31:53;1.50;;;1.33;;
14358;SDS011;7263;49.418;11.064;2023-05-10T12:34:24;2.65;;;1.15;;
14358;SDS011;7263;49.418;11.064;2023-05-10T12:36:52;5.50;;;4.97;;
14358;SDS011;7263;49.418;11.064;2023-05-10T12:39:19;2.00;;;0.70;;
14358;SDS011;7263;49.418;11.064;2023-05-10T12:41:49;1.23;;;0.93;;
14358;SDS011;7263;49.418;11.064;2023-05-10T12:44:24;2.58;;;0.70;;
14358;SDS011;7263;49.418;11.064;2023-05-10T12:46:52;2.45;;;0.80;;
14358;SDS011;7263;49.418;11.064;2023-05-10T12:49:22;0.75;;;0.75;;
14358;SDS011;7263;49.418;11.064;2023-05-10T12:51:49;0.80;;;0.80;;
14358;SDS011;7263;49.418;11.064;2023-05-10T12:54:19;1.17;;;0.82;;
14358;SDS011;7263;49.418;11.064;2023-05-10T12:56:48;0.85;;;0.82;;
14358;SDS011;7263;49.418;11.064;2023-05-10T12:59:20;2.15;;;1.00;;
14358;SDS011;7263;49.418;11.064;2023-05-10T13:01:47;0.80;;;0.80;;
14358;SDS011;7263;49.418;11.064;2023-05-10T13:04:18;0.90;;;0.90;;
14358;SDS011;7263;49.418;11.064;2023-05-10T13:06:45;1.17;;;1.08;;
14358;SDS011;7263;49.418;11.064;2023-05-10T13:09:12;1.40;;;1.05;;
14358;SDS011;7263;49.418;11.064;2023-05-10T13:11:42;36.40;;;33.28;;
14358;SDS011;7263;49.418;11.064;2023-05-10T13:14:10;3.17;;;2.08;;
14358;SDS011;7263;49.418;11.064;2023-05-10T13:16:38;1.35;;;1.10;;
14358;SDS011;7263;49.418;11.064;2023-05-10T13:19:05;1.20;;;1.10;;
14358;SDS011;7263;49.418;11.064;2023-05-10T13:21:35;0.80;;;0.80;;
14358;SDS011;7263;49.418;11.064;2023-05-10T13:24:09;1.13;;;1.00;;
14358;SDS011;7263;49.418;11.064;2023-05-10T13:26:38;1.30;;;1.05;;
14358;SDS011;7263;49.418;11.064;2023-05-10T13:29:07;1.70;;;1.08;;
14358;SDS011;7263;49.418;11.064;2023-05-10T13:31:34;2.90;;;1.35;;
14358;SDS011;7263;49.418;11.064;2023-05-10T13:34:01;5.47;;;4.72;;
14358;SDS011;7263;49.418;11.064;2023-05-10T13:36:32;1.17;;;1.08;;
14358;SDS011;7263;49.418;11.064;2023-05-10T13:39:00;1.17;;;1.08;;
14358;SDS011;7263;49.418;11.064;2023-05-10T13:41:28;0.95;;;0.88;;
14358;SDS011;7263;49.418;11.064;2023-05-10T13:43:55;1.17;;;1.00;;
14358;SDS011;7263;49.418;11.064;2023-05-10T13:46:22;1.23;;;1.13;;
14358;SDS011;7263;49.418;11.064;2023-05-10T13:48:49;1.50;;;0.93;;
14358;SDS011;7263;49.418;11.064;2023-05-10T13:51:16;0.80;;;0.80;;
14358;SDS011;7263;49.418;11.064;2023-05-10T13:53:43;0.90;;;0.70;;
14358;SDS011;7263;49.418;11.064;2023-05-10T13:56:13;2.05;;;0.95;;
14358;SDS011;7263;49.418;11.064;2023-05-10T13:58:44;2.30;;;1.00;;
14358;SDS011;7263;49.418;11.064;2023-05-10T14:01:14;1.73;;;0.88;;
14358;SDS011;7263;49.418;11.064;2023-05-10T14:03:44;1.90;;;1.00;;
14358;SDS011;7263;49.418;11.064;2023-05-10T14:06:11;1.08;;;1.00;;
14358;SDS011;7263;49.418;11.064;2023-05-10T14:08:41;1.70;;;1.02;;
14358;SDS011;7263;49.418;11.064;2023-05-10T14:11:10;2.28;;;1.30;;
14358;SDS011;7263;49.418;11.064;2023-05-10T14:13:39;3.88;;;1.67;;
14358;SDS011;7263;49.418;11.064;2023-05-10T14:16:06;1.40;;;1.00;;
14358;SDS011;7263;49.418;11.064;2023-05-10T14:18:36;2.47;;;2.05;;
14358;SDS011;7263;49.418;11.064;2023-05-10T14:21:09;1.98;;;1.42;;
14358;SDS011;7263;49.418;11.064;2023-05-10T14:23:44;1.20;;;1.10;;
14358;SDS011;7263;49.418;11.064;2023-05-10T14:26:13;1.95;;;1.10;;
14358;SDS011;7263;49.418;11.064;2023-05-10T14:28:44;1.38;;;1.08;;
14358;SDS011;7263;49.418;11.064;2023-05-10T14:31:17;1.63;;;0.93;;
14358;SDS011;7263;49.418;11.064;2023-05-10T14:33:52;2.72;;;1.20;;
14358;SDS011;7263;49.418;11.064;2023-05-10T14:36:19;1.65;;;1.00;;
14358;SDS011;7263;49.418;11.064;2023-05-10T14:38:50;1.35;;;1.02;;
14358;SDS011;7263;49.418;11.064;2023-05-10T14:41:19;0.75;;;0.75;;
14358;SDS011;7263;49.418;11.064;2023-05-10T14:43:52;1.13;;;0.98;;
14358;SDS011;7263;49.418;11.064;2023-05-10T14:46:19;1.63;;;1.10;;
14358;SDS011;7263;49.418;11.064;2023-05-10T14:48:52;1.45;;;1.02;;
14358;SDS011;7263;49.418;11.064;2023-05-10T14:51:21;1.40;;;1.25;;
14358;SDS011;7263;49.418;11.064;2023-05-10T14:53:51;1.67;;;1.13;;
14358;SDS011;7263;49.418;11.064;2023-05-10T14:56:18;2.33;;;1.17;;
14358;SDS011;7263;49.418;11.064;2023-05-10T14:58:52;2.60;;;1.30;;
14358;SDS011;7263;49.418;11.064;2023-05-10T15:01:19;1.45;;;1.10;;
14358;SDS011;7263;49.418;11.064;2023-05-10T15:03:46;1.48;;;0.93;;
14358;SDS011;7263;49.418;11.064;2023-05-10T15:06:16;2.22;;;1.20;;
14358;SDS011;7263;49.418;11.064;2023-05-10T15:08:52;0.88;;;0.85;;
14358;SDS011;7263;49.418;11.064;2023-05-10T15:11:18;1.20;;;1.10;;
14358;SDS011;7263;49.418;11.064;2023-05-10T15:13:46;1.30;;;1.20;;
14358;SDS011;7263;49.418;11.064;2023-05-10T15:16:24;1.77;;;0.93;;
14358;SDS011;7263;49.418;11.064;2023-05-10T15:18:51;1.27;;;0.90;;
14358;SDS011;7263;49.418;11.064;2023-05-10T15:21:18;0.70;;;0.70;;
14358;SDS011;7263;49.418;11.064;2023-05-10T15:23:45;0.80;;;0.80;;